Time;durP1;ratioP1;P1;durP2;ratioP2;P2;SDS_P1;SDS_P2;PMS_P1;PMS_P2;Temp;Humidity;BMP_temperature;BMP_pressure;BME280_temperature;BME280_humidity;BME280_pressure;Samples;Min_cycle;Max_cycle;Signal;HPM_P1;HPM_P2
2023/05/14 00:01:11;;;;;;;5.20;4.80;;;10.20;99.90;;;;;;5112848;28;20480;-79
2023/05/14 00:03:38;;;;;;;6.28;5.68;;;10.10;99.90;;;;;;5115072;28;20959;-78
2023/05/14 00:06:04;;;;;;;5.60;5.10;;;10.10;99.90;;;;;;5098109;28;20404;-79
2023/05/14 00:08:29;;;;;;;6.07;5.57;;;10.10;99.90;;;;;;5096214;28;20811;-79
2023/05/14 00:10:55;;;;;;;5.78;5.28;;;10.00;99.90;;;;;;5096188;28;20378;-79
2023/05/14 00:13:20;;;;;;;6.17;5.67;;;9.90;99.90;;;;;;5096292;28;20389;-79
2023/05/14 00:15:46;;;;;;;5.40;4.90;;;9.70;99.90;;;;;;5076881;28;20385;-79
2023/05/14 00:18:11;;;;;;;5.38;4.88;;;9.80;99.90;;;;;;5079515;28;20434;-78
2023/05/14 00:20:37;;;;;;;5.43;5.03;;;9.70;99.90;;;;;;5075158;28;20379;-78
2023/05/14 00:23:03;;;;;;;5.70;5.20;;;9.80;99.90;;;;;;5075365;28;20391;-79
2023/05/14 00:25:28;;;;;;;6.10;5.53;;;9.80;99.90;;;;;;5074109;28;20472;-79
2023/05/14 00:27:54;;;;;;;5.50;5.00;;;9.80;99.90;;;;;;5075482;28;20865;-78
2023/05/14 00:30:19;;;;;;;5.77;5.27;;;9.80;99.90;;;;;;5057216;28;20372;-77
2023/05/14 00:32:45;;;;;;;5.90;5.40;;;9.70;99.90;;;;;;5075041;28;20392;-79
2023/05/14 00:35:11;;;;;;;6.15;5.65;;;9.80;99.90;;;;;;5075194;28;20503;-78
2023/05/14 00:37:36;;;;;;;5.15;4.70;;;9.80;99.90;;;;;;5056053;28;20387;-79
2023/05/14 00:40:03;;;;;;;5.78;5.25;;;9.80;99.90;;;;;;5075156;28;20791;-78
2023/05/14 00:42:28;;;;;;;6.10;5.50;;;9.70;99.90;;;;;;5056895;28;20479;-79
2023/05/14 00:44:54;;;;;;;5.30;4.80;;;9.80;99.90;;;;;;5074667;28;20415;-78
2023/05/14 00:47:19;;;;;;;5.43;5.03;;;9.70;99.90;;;;;;5074208;28;20882;-79
2023/05/14 00:49:45;;;;;;;5.80;5.30;;;9.70;99.90;;;;;;5055192;28;20390;-79
2023/05/14 00:52:11;;;;;;;5.00;4.60;;;9.70;99.90;;;;;;5074282;28;20478;-78
2023/05/14 00:54:37;;;;;;;5.78;5.28;;;9.70;99.90;;;;;;5083666;28;20380;-77
2023/05/14 00:57:03;;;;;;;5.18;4.68;;;9.60;99.90;;;;;;5102684;28;20866;-78
2023/05/14 00:59:29;;;;;;;6.65;5.95;;;9.70;99.90;;;;;;5106752;28;20387;-78
2023/05/14 01:01:55;;;;;;;5.63;5.23;;;9.80;99.90;;;;;;5115447;28;20862;-78
2023/05/14 01:04:20;;;;;;;6.10;5.60;;;9.70;99.90;;;;;;5089083;28;20448;-79
2023/05/14 01:06:46;;;;;;;5.70;5.10;;;9.70;99.90;;;;;;5102187;28;20478;-79
2023/05/14 01:09:21;;;;;;;6.20;5.10;;;9.70;99.90;;;;;;5094493;28;20381;-78
2023/05/14 01:12:02;;;;;;;6.28;5.68;;;9.70;99.90;;;;;;5094663;28;20432;-78
2023/05/14 01:14:36;;;;;;;5.75;5.15;;;9.60;99.90;;;;;;5093907;28;20767;-79
2023/05/14 01:17:03;;;;;;;5.40;4.90;;;9.60;99.90;;;;;;5087264;28;20391;-79
2023/05/14 01:19:38;;;;;;;5.55;5.05;;;9.60;99.90;;;;;;5073955;28;20486;-78
2023/05/14 01:22:03;;;;;;;5.80;5.30;;;9.50;99.90;;;;;;5073995;28;20470;-79
2023/05/14 01:24:29;;;;;;;7.20;5.57;;;9.50;99.90;;;;;;5082551;28;20383;-77
2023/05/14 01:27:02;;;;;;;6.60;5.90;;;9.50;99.90;;;;;;5104982;28;20401;-78
2023/05/14 01:29:30;;;;;;;6.35;5.75;;;9.50;99.90;;;;;;5114038;28;20383;-79
2023/05/14 01:31:58;;;;;;;6.50;5.53;;;9.40;99.90;;;;;;5114505;28;20379;-79
2023/05/14 01:34:27;;;;;;;5.87;5.30;;;9.40;99.90;;;;;;5096601;28;20551;-79
2023/05/14 01:36:55;;;;;;;5.60;5.10;;;9.50;99.90;;;;;;5113805;28;20380;-79
2023/05/14 01:39:22;;;;;;;5.72;5.20;;;9.40;99.90;;;;;;5116463;28;20384;-79
2023/05/14 01:41:49;;;;;;;6.10;5.50;;;9.40;99.90;;;;;;5116623;28;20406;-79
2023/05/14 01:44:15;;;;;;;5.88;5.28;;;9.50;99.90;;;;;;5116515;28;20418;-79
2023/05/14 01:46:40;;;;;;;5.80;5.30;;;9.50;99.90;;;;;;5115431;28;20400;-79
2023/05/14 01:49:06;;;;;;;5.60;5.10;;;9.40;99.90;;;;;;5114915;28;20434;-77
2023/05/14 01:51:31;;;;;;;6.90;5.78;;;9.40;99.90;;;;;;5115733;28;20921;-79
2023/05/14 01:53:57;;;;;;;6.20;5.60;;;9.40;99.90;;;;;;5116436;28;20742;-79
2023/05/14 01:56:24;;;;;;;6.10;5.33;;;9.50;99.90;;;;;;5115452;28;20886;-79
2023/05/14 01:58:50;;;;;;;5.70;5.30;;;9.60;99.90;;;;;;5098004;28;20386;-79
2023/05/14 02:01:15;;;;;;;5.65;5.15;;;9.60;99.90;;;;;;5114388;28;20471;-79
2023/05/14 02:03:41;;;;;;;6.07;5.57;;;9.70;99.90;;;;;;5114210;28;20441;-79
2023/05/14 02:06:06;;;;;;;6.43;5.83;;;9.80;99.90;;;;;;5095661;28;20406;-79
2023/05/14 02:08:32;;;;;;;7.20;5.57;;;9.80;99.90;;;;;;5093596;28;20462;-78
2023/05/14 02:10:57;;;;;;;5.68;5.25;;;9.90;99.90;;;;;;5093166;28;20385;-79
2023/05/14 02:13:24;;;;;;;6.10;5.60;;;9.80;99.90;;;;;;5093244;28;20402;-78
2023/05/14 02:15:49;;;;;;;5.78;5.20;;;9.90;99.90;;;;;;5093168;28;20748;-79
2023/05/14 02:18:15;;;;;;;5.20;4.80;;;9.90;99.90;;;;;;5077087;28;20391;-79
2023/05/14 02:20:40;;;;;;;5.40;4.90;;;9.80;99.90;;;;;;5096167;28;20864;-79
2023/05/14 02:23:06;;;;;;;5.75;5.25;;;9.90;99.90;;;;;;5093240;28;20387;-79
2023/05/14 02:25:32;;;;;;;5.90;5.40;;;9.90;99.90;;;;;;5112083;28;20400;-79
2023/05/14 02:27:57;;;;;;;5.30;4.80;;;10.00;99.90;;;;;;5113372;28;20465;-79
2023/05/14 02:30:23;;;;;;;5.60;5.10;;;10.00;99.90;;;;;;5113719;28;20384;-79
2023/05/14 02:32:48;;;;;;;5.80;5.20;;;10.00;99.90;;;;;;5114058;28;20379;-79
2023/05/14 02:35:14;;;;;;;6.40;5.10;;;9.90;99.90;;;;;;5119663;28;20415;-76
2023/05/14 02:37:39;;;;;;;7.77;5.30;;;9.90;99.90;;;;;;5116921;28;20427;-79
2023/05/14 02:40:06;;;;;;;5.72;5.22;;;10.00;99.90;;;;;;5113451;28;20388;-78
2023/05/14 02:42:31;;;;;;;5.35;4.95;;;9.90;99.90;;;;;;5113351;28;20380;-79
2023/05/14 02:44:57;;;;;;;5.40;4.90;;;10.00;99.90;;;;;;5096109;28;20951;-79
2023/05/14 02:47:22;;;;;;;5.43;5.03;;;10.00;99.90;;;;;;5113966;28;20504;-77
2023/05/14 02:49:48;;;;;;;5.55;5.05;;;10.00;99.90;;;;;;5122334;28;20384;-78
2023/05/14 02:52:13;;;;;;;5.72;5.22;;;10.00;99.90;;;;;;5116539;28;20423;-79
2023/05/14 02:54:39;;;;;;;7.20;5.40;;;10.00;99.90;;;;;;5081509;28;20397;-79
2023/05/14 02:57:04;;;;;;;5.67;4.83;;;10.10;99.90;;;;;;5108678;28;20822;-79
2023/05/14 02:59:30;;;;;;;5.50;5.10;;;10.20;99.90;;;;;;5104727;28;20391;-79
2023/05/14 03:01:56;;;;;;;5.20;4.80;;;10.20;99.90;;;;;;5095834;28;20369;-79
2023/05/14 03:04:22;;;;;;;5.28;4.88;;;10.20;99.90;;;;;;5095643;28;20767;-79
2023/05/14 03:06:47;;;;;;;5.13;4.63;;;10.20;99.90;;;;;;5095505;28;20477;-78
2023/05/14 03:09:13;;;;;;;5.80;5.20;;;10.30;99.90;;;;;;5105158;28;20385;-79
2023/05/14 03:11:38;;;;;;;5.32;4.72;;;10.30;99.90;;;;;;5115771;28;20372;-79
2023/05/14 03:14:04;;;;;;;5.38;4.97;;;10.30;99.90;;;;;;5095016;28;20384;-79
2023/05/14 03:16:30;;;;;;;5.50;4.90;;;10.30;99.90;;;;;;5110744;28;20376;-78
2023/05/14 03:18:55;;;;;;;5.37;4.97;;;10.40;99.90;;;;;;5100167;28;20378;-79
2023/05/14 03:21:21;;;;;;;7.00;4.75;;;10.40;99.90;;;;;;5115469;28;20388;-79
2023/05/14 03:23:46;;;;;;;5.20;4.70;;;10.30;99.90;;;;;;5115504;28;20368;-79
2023/05/14 03:26:12;;;;;;;5.10;4.70;;;10.30;99.90;;;;;;5113895;28;20442;-78
2023/05/14 03:28:39;;;;;;;5.00;4.60;;;10.30;99.90;;;;;;5112778;28;20373;-79
2023/05/14 03:31:05;;;;;;;7.07;5.55;;;10.30;99.90;;;;;;5113257;28;20391;-79
2023/05/14 03:33:30;;;;;;;5.10;4.60;;;10.40;99.90;;;;;;5113095;28;20860;-79
2023/05/14 03:35:56;;;;;;;5.00;4.60;;;10.30;99.90;;;;;;5112305;28;20384;-78
2023/05/14 03:38:21;;;;;;;5.60;4.73;;;10.40;99.90;;;;;;5112368;28;20368;-79
2023/05/14 03:40:47;;;;;;;5.22;4.50;;;10.50;99.90;;;;;;5114578;28;20858;-78
2023/05/14 03:43:12;;;;;;;5.30;4.80;;;10.60;99.90;;;;;;5113808;28;20881;-78
2023/05/14 03:45:38;;;;;;;5.50;5.03;;;10.50;99.90;;;;;;5113579;28;20564;-79
2023/05/14 03:48:04;;;;;;;5.90;4.95;;;10.50;99.90;;;;;;5114073;28;20372;-79
2023/05/14 03:50:30;;;;;;;5.10;4.60;;;10.40;99.90;;;;;;5095661;28;20391;-79
2023/05/14 03:52:56;;;;;;;5.68;5.18;;;10.40;99.90;;;;;;5138234;22;20424;-80
2023/05/14 03:55:21;;;;;;;5.30;4.90;;;10.50;99.90;;;;;;5122992;28;20445;-80
2023/05/14 03:57:47;;;;;;;5.77;4.77;;;10.40;99.90;;;;;;5122301;28;20388;-80
2023/05/14 04:00:13;;;;;;;5.53;5.03;;;10.50;99.90;;;;;;5102090;28;20395;-80
2023/05/14 04:02:39;;;;;;;5.90;5.40;;;10.40;99.90;;;;;;5121215;28;20415;-80
2023/05/14 04:05:05;;;;;;;5.95;4.90;;;10.50;99.90;;;;;;5121423;28;20399;-80
2023/05/14 04:07:30;;;;;;;4.93;4.53;;;10.60;99.90;;;;;;5122559;28;20388;-80
2023/05/14 04:09:56;;;;;;;5.43;4.93;;;10.50;99.90;;;;;;5123498;28;20369;-80
2023/05/14 04:12:21;;;;;;;4.90;4.40;;;10.70;99.90;;;;;;5122611;28;20407;-80
2023/05/14 04:14:46;;;;;;;5.13;4.63;;;10.60;99.90;;;;;;5116308;28;20383;-80
2023/05/14 04:17:12;;;;;;;5.60;5.20;;;10.60;99.90;;;;;;5102951;28;20386;-80
2023/05/14 04:19:39;;;;;;;6.53;4.90;;;10.60;99.90;;;;;;5072750;28;20382;-80
2023/05/14 04:22:04;;;;;;;5.28;4.88;;;10.60;99.90;;;;;;5090691;28;20382;-80
2023/05/14 04:24:30;;;;;;;5.33;4.83;;;10.80;99.90;;;;;;5095628;28;21991;-80
2023/05/14 04:26:56;;;;;;;5.60;5.10;;;10.70;99.90;;;;;;5103065;28;20485;-81
2023/05/14 04:29:21;;;;;;;5.93;4.60;;;10.70;99.90;;;;;;5110636;28;21010;-80
2023/05/14 04:31:48;;;;;;;5.50;5.00;;;10.70;99.90;;;;;;5105103;28;20412;-81
2023/05/14 04:34:13;;;;;;;5.30;4.80;;;10.70;99.90;;;;;;5102671;28;20387;-80
2023/05/14 04:36:39;;;;;;;4.80;4.50;;;10.70;99.90;;;;;;5082132;28;20394;-80
2023/05/14 04:39:05;;;;;;;5.20;4.80;;;10.60;99.90;;;;;;5104468;28;20376;-81
2023/05/14 04:41:31;;;;;;;4.67;4.27;;;10.70;99.90;;;;;;5105317;28;20391;-81
2023/05/14 04:43:59;;;;;;;6.88;5.00;;;10.70;99.90;;;;;;5099873;28;20423;-80
2023/05/14 04:46:25;;;;;;;5.65;5.25;;;10.70;99.90;;;;;;5085243;28;20392;-80
2023/05/14 04:48:51;;;;;;;4.93;4.43;;;10.90;99.90;;;;;;5103026;28;20380;-80
2023/05/14 04:51:16;;;;;;;4.80;4.40;;;10.90;99.90;;;;;;5105202;28;20392;-80
2023/05/14 04:53:42;;;;;;;5.10;4.70;;;10.90;99.90;;;;;;5105369;28;20405;-80
2023/05/14 04:56:07;;;;;;;5.17;4.73;;;10.80;99.90;;;;;;5113659;28;20376;-80
2023/05/14 04:58:33;;;;;;;5.10;4.60;;;10.80;99.90;;;;;;5116495;28;20520;-82
2023/05/14 05:00:59;;;;;;;5.10;4.70;;;10.90;99.90;;;;;;5114820;28;20391;-80
2023/05/14 05:03:24;;;;;;;4.90;4.50;;;10.90;99.90;;;;;;5115043;28;20393;-79
2023/05/14 05:05:50;;;;;;;5.60;4.65;;;11.10;99.90;;;;;;5114029;28;20433;-79
2023/05/14 05:08:16;;;;;;;6.45;5.15;;;11.30;99.90;;;;;;5114783;28;20923;-79
2023/05/14 05:10:41;;;;;;;5.50;4.68;;;11.30;99.90;;;;;;5114674;28;20377;-80
2023/05/14 05:13:07;;;;;;;7.80;4.43;;;11.40;99.90;;;;;;5103792;28;20374;-80
2023/05/14 05:15:33;;;;;;;4.20;3.90;;;11.40;99.90;;;;;;5104395;28;20881;-81
2023/05/14 05:17:58;;;;;;;5.50;4.90;;;11.40;99.90;;;;;;5087717;28;21066;-81
2023/05/14 05:20:24;;;;;;;4.50;4.10;;;11.40;99.90;;;;;;5106484;28;20407;-81
2023/05/14 05:22:49;;;;;;;4.88;4.47;;;11.40;99.90;;;;;;5091660;28;20411;-81
2023/05/14 05:25:15;;;;;;;5.05;4.65;;;11.40;99.90;;;;;;5108671;28;20376;-81
2023/05/14 05:27:40;;;;;;;5.27;4.87;;;11.40;99.90;;;;;;5107136;28;20516;-81
2023/05/14 05:30:07;;;;;;;5.70;5.20;;;11.40;99.90;;;;;;5085459;28;20378;-81
2023/05/14 05:32:32;;;;;;;5.38;4.97;;;11.50;99.90;;;;;;5105815;28;20384;-81
2023/05/14 05:34:58;;;;;;;5.38;4.97;;;11.60;99.90;;;;;;5104840;28;20382;-81
2023/05/14 05:37:24;;;;;;;5.23;4.83;;;11.40;99.90;;;;;;5104668;28;20380;-81
2023/05/14 05:39:49;;;;;;;5.47;4.97;;;11.50;99.90;;;;;;5106911;28;20376;-81
2023/05/14 05:42:15;;;;;;;5.97;5.47;;;11.40;99.90;;;;;;5108694;28;20467;-81
2023/05/14 05:44:40;;;;;;;6.15;5.55;;;11.50;99.90;;;;;;5093577;28;20448;-81
2023/05/14 05:47:06;;;;;;;5.50;5.10;;;11.40;99.90;;;;;;5089857;28;20917;-81
2023/05/14 05:49:32;;;;;;;5.78;5.28;;;11.60;99.90;;;;;;5108244;28;20388;-81
2023/05/14 05:51:57;;;;;;;5.57;5.07;;;11.60;99.90;;;;;;5112050;28;20854;-82
2023/05/14 05:54:24;;;;;;;5.33;4.90;;;11.60;99.90;;;;;;5093185;28;20831;-82
2023/05/14 05:56:49;;;;;;;5.75;4.90;;;11.60;99.90;;;;;;5090236;28;20380;-81
2023/05/14 05:59:15;;;;;;;5.30;4.80;;;11.50;99.90;;;;;;5108778;28;20399;-81
2023/05/14 06:01:42;;;;;;;5.75;5.25;;;11.60;99.90;;;;;;5113288;28;20436;-81
2023/05/14 06:04:08;;;;;;;5.20;4.80;;;11.60;99.90;;;;;;5114636;28;20418;-81
2023/05/14 06:06:33;;;;;;;6.57;5.10;;;11.60;99.90;;;;;;5089814;28;20495;-82
2023/05/14 06:09:00;;;;;;;5.70;5.20;;;11.70;99.90;;;;;;5113152;28;20957;-82
2023/05/14 06:11:26;;;;;;;6.00;5.40;;;11.70;99.90;;;;;;5116592;28;20858;-82
2023/05/14 06:13:52;;;;;;;5.60;5.10;;;11.80;99.90;;;;;;5095851;28;20430;-82
2023/05/14 06:16:17;;;;;;;5.60;5.20;;;11.70;99.90;;;;;;5120763;28;20392;-81
2023/05/14 06:18:43;;;;;;;6.03;5.00;;;11.80;99.90;;;;;;5122262;27;20395;-81
2023/05/14 06:21:08;;;;;;;5.87;5.37;;;11.80;99.90;;;;;;5128193;27;20441;-81
2023/05/14 06:23:34;;;;;;;5.93;5.43;;;11.90;99.90;;;;;;5095248;28;20456;-82
2023/05/14 06:25:59;;;;;;;5.60;5.20;;;11.90;99.90;;;;;;5101564;28;20483;-83
2023/05/14 06:28:25;;;;;;;5.80;5.20;;;11.90;99.90;;;;;;5119882;27;20909;-81
2023/05/14 06:30:52;;;;;;;5.95;5.45;;;11.80;99.90;;;;;;5121870;27;20403;-83
2023/05/14 06:33:20;;;;;;;5.87;5.37;;;11.90;99.90;;;;;;5122624;27;20387;-83
2023/05/14 06:35:45;;;;;;;5.68;5.18;;;12.00;99.90;;;;;;5133043;27;20375;-82
2023/05/14 06:38:11;;;;;;;5.90;5.40;;;12.10;99.90;;;;;;5104620;28;20385;-82
2023/05/14 06:40:36;;;;;;;6.40;5.90;;;12.20;99.90;;;;;;5128426;27;21040;-82
2023/05/14 06:43:02;;;;;;;5.70;5.20;;;12.20;99.90;;;;;;5132386;27;20937;-82
2023/05/14 06:45:28;;;;;;;7.60;5.90;;;12.20;99.90;;;;;;5115569;27;20463;-82
2023/05/14 06:47:54;;;;;;;6.30;5.80;;;12.30;99.90;;;;;;5118513;27;20470;-82
2023/05/14 06:50:20;;;;;;;5.97;5.47;;;12.40;99.90;;;;;;5135679;27;20412;-82
2023/05/14 06:52:45;;;;;;;6.20;5.70;;;12.40;99.90;;;;;;5096548;28;20398;-82
2023/05/14 06:55:13;;;;;;;5.72;5.30;;;12.20;99.90;;;;;;5103669;27;20414;-81
2023/05/14 06:57:39;;;;;;;6.22;5.65;;;12.00;99.90;;;;;;5097965;28;20720;-82
2023/05/14 07:00:05;;;;;;;6.35;5.85;;;12.10;99.90;;;;;;5123516;27;20433;-82
2023/05/14 07:02:31;;;;;;;6.20;5.70;;;12.30;99.90;;;;;;5115387;28;20418;-82
2023/05/14 07:04:56;;;;;;;6.67;6.17;;;12.50;99.90;;;;;;5118715;27;20379;-79
2023/05/14 07:07:22;;;;;;;6.90;6.30;;;12.50;99.90;;;;;;5114293;28;20408;-79
2023/05/14 07:09:47;;;;;;;7.10;6.50;;;12.60;99.90;;;;;;5129476;27;20375;-80
2023/05/14 07:12:13;;;;;;;6.50;5.90;;;12.80;99.90;;;;;;5100408;28;20384;-80
2023/05/14 07:14:39;;;;;;;7.25;6.63;;;12.90;99.90;;;;;;5131868;27;20380;-80
2023/05/14 07:17:04;;;;;;;6.18;5.68;;;13.00;99.90;;;;;;5115927;28;20376;-80
2023/05/14 07:19:30;;;;;;;6.40;5.90;;;13.10;99.90;;;;;;5108142;27;20383;-80
2023/05/14 07:21:56;;;;;;;6.90;6.30;;;13.10;99.90;;;;;;5115832;27;20469;-80
2023/05/14 07:24:22;;;;;;;6.57;6.07;;;13.40;99.90;;;;;;5097071;28;20441;-80
2023/05/14 07:26:48;;;;;;;7.20;6.50;;;13.40;99.90;;;;;;5110851;28;20401;-80
2023/05/14 07:29:13;;;;;;;7.20;6.60;;;13.40;99.90;;;;;;5123847;28;20414;-80
2023/05/14 07:31:39;;;;;;;6.90;6.30;;;13.20;99.90;;;;;;5122175;28;20459;-80
2023/05/14 07:34:04;;;;;;;7.07;6.47;;;13.40;99.90;;;;;;5127830;27;20470;-79
2023/05/14 07:36:30;;;;;;;6.63;6.13;;;13.40;99.90;;;;;;5117021;28;20394;-79
2023/05/14 07:38:56;;;;;;;6.97;6.30;;;13.50;99.90;;;;;;5117332;28;20388;-80
2023/05/14 07:41:21;;;;;;;7.25;6.65;;;13.30;99.90;;;;;;5119556;28;20382;-80
2023/05/14 07:43:47;;;;;;;7.30;6.70;;;13.60;99.90;;;;;;5132913;28;20399;-81
2023/05/14 07:46:13;;;;;;;7.03;6.33;;;13.40;99.90;;;;;;5125765;28;20445;-81
2023/05/14 07:48:39;;;;;;;7.78;7.07;;;13.40;99.90;;;;;;5139781;28;20941;-81
2023/05/14 07:51:04;;;;;;;7.97;7.18;;;13.60;99.90;;;;;;5115662;28;20375;-80
2023/05/14 07:53:30;;;;;;;6.97;6.47;;;13.50;99.90;;;;;;5135777;28;20388;-80
2023/05/14 07:55:56;;;;;;;7.03;6.53;;;13.50;99.90;;;;;;5140487;28;20382;-77
2023/05/14 07:58:22;;;;;;;7.20;6.60;;;13.60;99.90;;;;;;5129226;28;20380;-81
2023/05/14 08:00:48;;;;;;;7.10;6.50;;;13.70;99.90;;;;;;5123982;28;20395;-81
2023/05/14 08:03:13;;;;;;;7.30;6.60;;;13.80;99.90;;;;;;5135388;28;20383;-79
2023/05/14 08:05:39;;;;;;;7.40;6.80;;;13.80;99.90;;;;;;5121828;28;20463;-82
2023/05/14 08:08:04;;;;;;;6.60;6.07;;;13.70;99.90;;;;;;5126091;28;20380;-82
2023/05/14 08:10:30;;;;;;;6.67;6.17;;;13.70;99.90;;;;;;5141916;28;20382;-80
2023/05/14 08:12:55;;;;;;;6.50;5.80;;;13.90;99.90;;;;;;5135646;28;20375;-82
2023/05/14 08:15:21;;;;;;;6.35;5.85;;;13.70;99.90;;;;;;5125234;28;20378;-81
2023/05/14 08:17:47;;;;;;;5.78;5.28;;;13.90;99.90;;;;;;5118703;28;20951;-79
2023/05/14 08:20:13;;;;;;;6.63;6.13;;;13.80;99.90;;;;;;5117435;28;20939;-80
2023/05/14 08:22:38;;;;;;;6.65;6.07;;;14.00;99.90;;;;;;5137738;28;20743;-80
2023/05/14 08:25:05;;;;;;;6.50;6.00;;;13.70;99.90;;;;;;5130863;27;20378;-81
2023/05/14 08:27:31;;;;;;;6.45;5.95;;;13.90;99.90;;;;;;5117017;27;20403;-80
2023/05/14 08:29:56;;;;;;;6.47;5.97;;;14.00;99.90;;;;;;5125114;27;20434;-80
2023/05/14 08:32:22;;;;;;;6.73;6.13;;;13.90;99.90;;;;;;5134433;27;20395;-80
2023/05/14 08:34:47;;;;;;;6.93;6.32;;;14.10;99.90;;;;;;5129435;27;20465;-80
2023/05/14 08:37:13;;;;;;;7.03;6.43;;;14.20;99.90;;;;;;5126014;27;20622;-80
2023/05/14 08:39:38;;;;;;;7.20;6.60;;;14.20;99.90;;;;;;5140142;27;20925;-81
2023/05/14 08:42:06;;;;;;;7.25;6.57;;;14.40;99.90;;;;;;5124182;27;20387;-79
2023/05/14 08:44:37;;;;;;;7.32;6.50;;;14.20;99.90;;;;;;5132735;27;20808;-80
2023/05/14 08:47:04;;;;;;;6.72;6.22;;;14.30;99.90;;;;;;5129890;27;20457;-80
2023/05/14 08:49:43;;;;;;;7.35;6.75;;;14.30;99.90;;;;;;5106680;27;20375;-80
2023/05/14 08:52:09;;;;;;;6.50;6.00;;;14.50;99.90;;;;;;5121705;27;20464;-81
2023/05/14 08:54:35;;;;;;;7.65;6.95;;;14.40;99.90;;;;;;5099593;28;20437;-81
2023/05/14 08:57:03;;;;;;;7.50;6.90;;;14.70;99.90;;;;;;5110706;28;20381;-81
2023/05/14 08:59:28;;;;;;;6.50;6.00;;;14.80;99.90;;;;;;5117531;27;20441;-81
2023/05/14 09:01:57;;;;;;;6.70;6.17;;;15.10;99.90;;;;;;5095256;27;20390;-81
2023/05/14 09:04:23;;;;;;;6.82;6.22;;;15.10;99.90;;;;;;5093851;27;20443;-81
2023/05/14 09:06:51;;;;;;;6.40;5.93;;;15.10;99.90;;;;;;5113062;27;20401;-81
2023/05/14 09:09:17;;;;;;;9.30;6.60;;;14.90;99.90;;;;;;5111958;27;20561;-80
2023/05/14 09:11:46;;;;;;;6.35;5.85;;;15.20;99.90;;;;;;5130375;27;20465;-81
2023/05/14 09:14:12;;;;;;;6.50;6.00;;;15.10;99.90;;;;;;5086789;27;20379;-81
2023/05/14 09:16:40;;;;;;;6.60;6.00;;;15.20;99.90;;;;;;5124962;27;20813;-80
2023/05/14 09:19:06;;;;;;;6.93;6.43;;;15.40;99.90;;;;;;5106935;28;20373;-81
2023/05/14 09:21:32;;;;;;;6.82;6.22;;;15.40;99.90;;;;;;5129849;27;20386;-81
2023/05/14 09:23:57;;;;;;;6.30;5.70;;;15.60;99.90;;;;;;5132052;27;20375;-82
2023/05/14 09:26:27;;;;;;;6.38;5.88;;;15.70;99.90;;;;;;5125639;27;20399;-82
2023/05/14 09:28:56;;;;;;;5.97;5.53;;;15.50;99.90;;;;;;5117054;28;20391;-82
2023/05/14 09:31:22;;;;;;;6.43;5.93;;;15.60;99.90;;;;;;5136159;27;20813;-81
2023/05/14 09:33:51;;;;;;;7.13;6.53;;;15.40;99.90;;;;;;5132819;27;20391;-83
2023/05/14 09:36:18;;;;;;;6.82;6.32;;;15.60;99.90;;;;;;5129605;28;20381;-81
2023/05/14 09:38:43;;;;;;;6.50;5.90;;;15.50;99.90;;;;;;5134982;27;20390;-82
2023/05/14 09:41:09;;;;;;;7.10;6.50;;;15.20;99.90;;;;;;5130768;27;20381;-83
2023/05/14 09:43:35;;;;;;;7.60;6.90;;;15.50;99.90;;;;;;5119742;27;20486;-82
2023/05/14 09:46:00;;;;;;;6.68;6.18;;;15.60;99.90;;;;;;5125605;27;20439;-82
2023/05/14 09:48:26;;;;;;;6.72;6.13;;;15.70;99.90;;;;;;5112182;28;20762;-79
2023/05/14 09:50:51;;;;;;;5.13;4.73;;;15.90;99.90;;;;;;5105500;27;20439;-79
2023/05/14 09:53:17;;;;;;;5.60;5.10;;;15.90;99.90;;;;;;5133887;22;20529;-82
2023/05/14 09:55:44;;;;;;;4.88;4.47;;;15.90;99.90;;;;;;5076691;28;20887;-81
2023/05/14 09:58:10;;;;;;;5.40;5.00;;;16.00;99.90;;;;;;5097389;28;20823;-80
2023/05/14 10:00:36;;;;;;;5.90;5.40;;;16.30;99.90;;;;;;5098864;28;20388;-82
2023/05/14 10:03:05;;;;;;;6.00;5.40;;;16.60;99.90;;;;;;5095554;28;20561;-77
2023/05/14 10:05:40;;;;;;;5.95;5.45;;;16.70;99.90;;;;;;5071783;28;20396;-78
2023/05/14 10:08:25;;;;;;;5.45;5.05;;;16.90;65.20;;;;;;5084506;28;20375;-80
2023/05/14 10:10:53;;;;;;;5.00;4.60;;;16.70;71.50;;;;;;5082762;28;20739;-81
2023/05/14 10:13:28;;;;;;;4.70;4.40;;;16.60;99.90;;;;;;5087448;28;20375;-80
2023/05/14 10:16:07;;;;;;;4.80;4.50;;;16.70;99.90;;;;;;5080361;28;20384;-79
2023/05/14 10:18:39;;;;;;;4.50;4.10;;;16.80;90.20;;;;;;5078194;28;20423;-78
2023/05/14 10:21:06;;;;;;;4.10;3.80;;;16.60;52.50;;;;;;5060556;28;20387;-80
2023/05/14 10:23:33;;;;;;;4.22;3.92;;;16.90;41.60;;;;;;5078646;28;20395;-79
2023/05/14 10:26:00;;;;;;;4.47;4.18;;;16.90;33.30;;;;;;5079416;28;20407;-80
2023/05/14 10:28:27;;;;;;;4.32;4.03;;;17.20;36.30;;;;;;5061151;28;20392;-81
2023/05/14 10:30:53;;;;;;;4.47;4.07;;;17.10;79.50;;;;;;5059485;28;20392;-80
2023/05/14 10:33:19;;;;;;;4.63;4.23;;;16.70;39.10;;;;;;5077370;28;20399;-82
2023/05/14 10:35:57;;;;;;;4.60;4.30;;;16.60;99.90;;;;;;5077501;28;20384;-81
2023/05/14 10:38:27;;;;;;;4.75;4.35;;;16.70;99.90;;;;;;5076453;28;20382;-81
2023/05/14 10:41:02;;;;;;;4.50;4.20;;;16.80;77.50;;;;;;5057546;28;20388;-82
2023/05/14 10:43:29;;;;;;;4.60;4.30;;;16.30;99.90;;;;;;5076069;28;20380;-81
2023/05/14 10:45:56;;;;;;;5.60;5.20;;;16.50;99.90;;;;;;5076246;28;20404;-80
2023/05/14 10:48:23;;;;;;;5.80;5.38;;;16.80;78.60;;;;;;5072312;28;20531;-82
2023/05/14 10:50:52;;;;;;;6.03;5.43;;;16.80;81.00;;;;;;5053882;28;20396;-83
2023/05/14 10:53:18;;;;;;;5.30;4.90;;;16.70;74.50;;;;;;5075388;28;20423;-83
2023/05/14 10:55:44;;;;;;;5.15;4.75;;;16.50;74.40;;;;;;5057167;28;20944;-83
2023/05/14 10:58:11;;;;;;;4.88;4.40;;;16.80;47.10;;;;;;5059012;28;20395;-83
2023/05/14 11:00:37;;;;;;;4.53;4.13;;;16.80;44.40;;;;;;5080727;28;20397;-82
2023/05/14 11:03:04;;;;;;;5.30;4.80;;;17.10;46.40;;;;;;5086252;28;20408;-84
2023/05/14 11:05:30;;;;;;;4.17;3.87;;;17.10;41.80;;;;;;5088255;28;20384;-84
2023/05/14 11:07:57;;;;;;;5.57;5.07;;;17.30;39.90;;;;;;5057511;28;20389;-82
2023/05/14 11:10:30;;;;;;;5.72;5.30;;;17.10;48.30;;;;;;5052564;28;20456;-84
2023/05/14 11:12:56;;;;;;;5.97;5.47;;;17.20;46.90;;;;;;5070653;28;20377;-84
2023/05/14 11:15:24;;;;;;;6.18;5.57;;;16.90;46.30;;;;;;5074978;28;20794;-82
2023/05/14 11:17:51;;;;;;;5.35;4.95;;;16.90;43.40;;;;;;5071653;28;20435;-83
2023/05/14 11:20:18;;;;;;;5.50;5.00;;;16.90;49.00;;;;;;5087664;28;20402;-84
2023/05/14 11:22:45;;;;;;;9.75;4.97;;;17.30;36.50;;;;;;5075325;28;20387;-84
2023/05/14 11:25:15;;;;;;;5.20;4.70;;;17.50;28.10;;;;;;5056995;28;20408;-83
2023/05/14 11:27:43;;;;;;;5.07;4.68;;;17.50;21.30;;;;;;5074648;28;20384;-83
2023/05/14 11:30:15;;;;;;;5.15;4.75;;;17.70;18.20;;;;;;5055335;28;20376;-83
2023/05/14 11:32:43;;;;;;;4.90;4.50;;;17.80;18.80;;;;;;5070845;28;20435;-84
2023/05/14 11:35:09;;;;;;;4.50;4.20;;;18.40;14.20;;;;;;5077750;28;20376;-84
2023/05/14 11:37:35;;;;;;;4.72;4.32;;;19.70;1.50;;;;;;5087510;28;20525;-84
2023/05/14 11:40:00;;;;;;;4.00;3.70;;;19.50;1.00;;;;;;5067336;28;20399;-82
2023/05/14 11:42:26;;;;;;;4.10;3.80;;;19.30;1.00;;;;;;5050551;28;20387;-81
2023/05/14 11:44:56;;;;;;;3.80;3.50;;;18.50;1.00;;;;;;5050234;28;20819;-83
2023/05/14 11:47:21;;;;;;;3.90;3.50;;;17.90;3.60;;;;;;5063657;28;20423;-81
2023/05/14 11:49:47;;;;;;;3.50;3.20;;;17.20;7.60;;;;;;5091031;28;20388;-80
2023/05/14 11:52:14;;;;;;;3.30;3.00;;;16.80;11.50;;;;;;5092896;28;20392;-79
2023/05/14 11:54:43;;;;;;;3.10;2.90;;;16.70;17.60;;;;;;5062694;28;20400;-81
2023/05/14 11:57:17;;;;;;;3.70;3.40;;;16.60;22.70;;;;;;5060211;28;20387;-80
2023/05/14 11:59:44;;;;;;;3.55;3.25;;;16.40;25.70;;;;;;5083156;28;20383;-79
2023/05/14 12:02:15;;;;;;;3.83;3.53;;;16.40;29.00;;;;;;5066942;28;20392;-79
2023/05/14 12:04:42;;;;;;;3.70;3.37;;;16.30;34.90;;;;;;5095793;28;20375;-78
2023/05/14 12:07:09;;;;;;;3.92;3.50;;;16.30;41.00;;;;;;5084153;28;20427;-79
2023/05/14 12:09:38;;;;;;;4.00;3.70;;;16.40;53.60;;;;;;5087651;28;20912;-80
2023/05/14 12:12:12;;;;;;;3.90;3.60;;;16.40;59.20;;;;;;5085894;28;20389;-79
2023/05/14 12:14:41;;;;;;;4.10;3.80;;;16.40;55.20;;;;;;5072103;28;20398;-79
2023/05/14 12:17:19;;;;;;;3.90;3.60;;;16.50;67.30;;;;;;5078944;28;20390;-81
2023/05/14 12:19:47;;;;;;;3.88;3.58;;;16.50;67.80;;;;;;5075557;28;20887;-80
2023/05/14 12:22:15;;;;;;;3.13;2.92;;;16.40;99.90;;;;;;5057108;28;20386;-80
2023/05/14 12:24:43;;;;;;;3.40;3.20;;;16.60;99.90;;;;;;5081598;28;20398;-82
2023/05/14 12:27:09;;;;;;;3.60;3.30;;;16.70;99.90;;;;;;5089869;28;20411;-79
2023/05/14 12:29:36;;;;;;;3.75;3.22;;;16.50;99.90;;;;;;5079751;28;20380;-81
2023/05/14 12:32:07;;;;;;;2.95;2.75;;;16.40;99.90;;;;;;5076757;28;20384;-81
2023/05/14 12:34:32;;;;;;;3.00;2.80;;;16.50;99.90;;;;;;5069345;28;20945;-81
2023/05/14 12:36:58;;;;;;;2.60;2.40;;;16.80;99.90;;;;;;5064447;28;21122;-82
2023/05/14 12:39:23;;;;;;;2.70;2.50;;;16.60;99.90;;;;;;5093233;28;20471;-81
2023/05/14 12:41:49;;;;;;;2.70;2.50;;;16.70;99.90;;;;;;5069666;28;20771;-81
2023/05/14 12:44:15;;;;;;;2.90;2.70;;;17.20;99.90;;;;;;5076755;28;20470;-81